Time;durP1;ratioP1;P1;durP2;ratioP2;P2;SDS_P1;SDS_P2;PMS_P1;PMS_P2;Temp;Humidity;BMP_temperature;BMP_pressure;BME280_temperature;BME280_humidity;BME280_pressure;Samples;Min_cycle;Max_cycle;Signal;HPM_P1;HPM_P2
2022/11/29 00:01:15;;;;;;;;;;;23.70;71.20;;;;;;5058771;28;19911;-72
2022/11/29 00:03:42;;;;;;;;;;;23.80;70.80;;;;;;5061632;28;19946;-71
2022/11/29 00:06:10;;;;;;;;;;;23.80;69.70;;;;;;5059261;28;20371;-71
2022/11/29 00:08:37;;;;;;;;;;;23.80;70.30;;;;;;5060450;28;19908;-70
2022/11/29 00:11:05;;;;;;;;;;;23.80;70.30;;;;;;5060450;28;20307;-70
2022/11/29 00:13:32;;;;;;;;;;;23.80;70.20;;;;;;5058866;28;19908;-71
2022/11/29 00:16:06;;;;;;;;;;;23.90;70.70;;;;;;5061428;28;20402;-72
2022/11/29 00:18:33;;;;;;;;;;;24.00;70.00;;;;;;5058683;28;19909;-72
2022/11/29 00:20:59;;;;;;;;;;;24.10;68.80;;;;;;5061270;28;19970;-71
2022/11/29 00:23:26;;;;;;;;;;;24.10;66.90;;;;;;5058589;28;20412;-71
2022/11/29 00:25:53;;;;;;;;;;;24.00;67.40;;;;;;5061363;28;20064;-69
2022/11/29 00:28:19;;;;;;;;;;;24.10;67.30;;;;;;5058230;28;19909;-70
2022/11/29 00:30:46;;;;;;;;;;;24.30;67.10;;;;;;5059428;28;19915;-72
2022/11/29 00:33:13;;;;;;;;;;;24.50;65.00;;;;;;5060460;28;19974;-70
2022/11/29 00:35:39;;;;;;;;;;;24.60;63.80;;;;;;5059223;28;20079;-71
2022/11/29 00:38:06;;;;;;;;;;;24.60;65.30;;;;;;5059048;28;19908;-71
2022/11/29 00:40:33;;;;;;;;;;;24.60;64.10;;;;;;5056946;28;20128;-71
2022/11/29 00:42:59;;;;;;;;;;;24.60;62.60;;;;;;5061217;28;19919;-71
2022/11/29 00:45:26;;;;;;;;;;;24.70;63.60;;;;;;5058662;28;19908;-71
2022/11/29 00:47:52;;;;;;;;;;;24.80;63.80;;;;;;5059507;28;20257;-70
2022/11/29 00:50:19;;;;;;;;;;;24.80;63.20;;;;;;5058830;28;19909;-72
2022/11/29 00:52:46;;;;;;;;;;;24.90;63.30;;;;;;5060001;28;19916;-71
2022/11/29 00:55:12;;;;;;;;;;;25.10;63.20;;;;;;5059108;28;19915;-71
2022/11/29 00:57:39;;;;;;;;;;;25.20;62.90;;;;;;5057656;28;20092;-71
2022/11/29 01:00:06;;;;;;;;;;;25.20;63.20;;;;;;5060497;28;19995;-74
2022/11/29 01:02:32;;;;;;;;;;;25.10;61.60;;;;;;5059008;28;19916;-70
2022/11/29 01:04:59;;;;;;;;;;;25.10;61.70;;;;;;5060606;28;19909;-71
2022/11/29 01:07:26;;;;;;;;;;;25.10;61.90;;;;;;5056934;28;20003;-71
2022/11/29 01:09:52;;;;;;;;;;;25.10;62.70;;;;;;5060141;28;20363;-72
2022/11/29 01:12:19;;;;;;;;;;;25.20;62.80;;;;;;5059471;28;19923;-73
2022/11/29 01:14:46;;;;;;;;;;;25.30;61.90;;;;;;5058325;28;20109;-72
2022/11/29 01:17:12;;;;;;;;;;;25.50;62.30;;;;;;5059535;28;19915;-71
2022/11/29 01:19:39;;;;;;;;;;;25.60;63.60;;;;;;5057507;28;19916;-72
2022/11/29 01:22:06;;;;;;;;;;;25.80;61.30;;;;;;5060618;28;19916;-71
2022/11/29 01:24:32;;;;;;;;;;;25.80;60.10;;;;;;5057445;28;20161;-70
2022/11/29 01:26:59;;;;;;;;;;;25.90;59.90;;;;;;5059397;28;19962;-70
2022/11/29 01:29:25;;;;;;;;;;;25.70;59.50;;;;;;5056358;28;19908;-72
2022/11/29 01:31:52;;;;;;;;;;;25.60;61.10;;;;;;5059198;28;20009;-70
2022/11/29 01:34:19;;;;;;;;;;;25.70;61.70;;;;;;5059787;28;19909;-70
2022/11/29 01:36:46;;;;;;;;;;;25.70;60.90;;;;;;5056598;28;20380;-73
2022/11/29 01:39:12;;;;;;;;;;;25.90;59.70;;;;;;5060668;28;19913;-72
2022/11/29 01:41:39;;;;;;;;;;;25.90;61.70;;;;;;5056924;28;19908;-72
2022/11/29 01:44:26;;;;;;;;;;;26.00;60.60;;;;;;5059944;28;19909;-70
2022/11/29 01:46:53;;;;;;;;;;;26.10;59.20;;;;;;5038019;28;20361;-70
2022/11/29 01:49:21;;;;;;;;;;;26.20;59.50;;;;;;5059594;28;19904;-72
2022/11/29 01:51:53;;;;;;;;;;;26.20;59.50;;;;;;5056291;28;19989;-70
2022/11/29 01:54:20;;;;;;;;;;;26.30;60.70;;;;;;5058212;28;19908;-72
2022/11/29 01:56:48;;;;;;;;;;;26.30;59.80;;;;;;5055995;28;20677;-71
2022/11/29 01:59:16;;;;;;;;;;;26.30;61.20;;;;;;5060404;28;19913;-71
2022/11/29 02:01:43;;;;;;;;;;;26.40;60.00;;;;;;5056164;28;19909;-72
2022/11/29 02:04:10;;;;;;;;;;;26.50;59.60;;;;;;5060525;28;19946;-71
2022/11/29 02:06:36;;;;;;;;;;;26.60;59.70;;;;;;5055931;28;19915;-70
2022/11/29 02:09:03;;;;;;;;;;;26.70;61.00;;;;;;5058987;28;19919;-69
2022/11/29 02:11:30;;;;;;;;;;;26.90;60.30;;;;;;5059341;28;20327;-72
2022/11/29 02:14:16;;;;;;;;;;;26.80;61.80;;;;;;5057734;28;21580;-71
2022/11/29 02:16:48;;;;;;;;;;;26.80;61.30;;;;;;5056597;28;19978;-72
2022/11/29 02:19:14;;;;;;;;;;;27.10;59.10;;;;;;5058116;28;19939;-73
2022/11/29 02:21:48;;;;;;;;;;;27.10;59.60;;;;;;5055867;28;20369;-70
2022/11/29 02:24:26;;;;;;;;;;;27.20;59.40;;;;;;5058775;28;20012;-73
2022/11/29 02:27:08;;;;;;;;;;;27.20;59.60;;;;;;5054950;28;19909;-70
2022/11/29 02:29:41;;;;;;;;;;;26.90;60.00;;;;;;5058204;28;19966;-70
2022/11/29 02:32:23;;;;;;;;;;;27.10;63.20;;;;;;5058326;28;19986;-71
2022/11/29 02:35:08;;;;;;;;;;;27.40;63.20;;;;;;5054754;28;20029;-72
2022/11/29 02:37:47;;;;;;;;;;;27.70;59.50;;;;;;5058231;28;19908;-72
2022/11/29 02:40:20;;;;;;;;;;;27.70;60.00;;;;;;5058829;28;19909;-70
2022/11/29 02:43:05;;;;;;;;;;;27.80;59.50;;;;;;5055867;28;20269;-71
2022/11/29 02:45:44;;;;;;;;;;;27.80;59.30;;;;;;5058823;28;20255;-72
2022/11/29 02:48:29;;;;;;;;;;;27.90;59.70;;;;;;5058988;28;20522;-70
2022/11/29 02:51:02;;;;;;;;;;;28.20;60.30;;;;;;5054118;28;19916;-71
2022/11/29 02:53:29;;;;;;;;;;;29.10;60.20;;;;;;5058501;28;19909;-71
2022/11/29 02:56:02;;;;;;;;;;;29.80;59.00;;;;;;5055336;28;19973;-69
2022/11/29 02:58:44;;;;;;;;;;;29.80;56.90;;;;;;5058517;28;19908;-69
2022/11/29 03:01:14;;;;;;;;;;;30.50;56.20;;;;;;5059163;28;19909;-69
2022/11/29 03:03:56;;;;;;;;;;;31.00;55.30;;;;;;5056598;28;19909;-69
2022/11/29 03:06:26;;;;;;;;;;;31.60;54.90;;;;;;5059732;28;19909;-71
2022/11/29 03:09:04;;;;;;;;;;;32.40;53.20;;;;;;5055269;28;19950;-69
2022/11/29 03:11:40;;;;;;;;;;;31.50;54.90;;;;;;5057820;28;19955;-70
2022/11/29 03:14:15;;;;;;;;;;;32.00;53.60;;;;;;5057090;28;19939;-69
2022/11/29 03:16:56;;;;;;;;;;;33.10;53.40;;;;;;5054275;28;19909;-71
2022/11/29 03:19:46;;;;;;;;;;;34.10;52.40;;;;;;5057714;28;19909;-71
2022/11/29 03:22:28;;;;;;;;;;;34.70;52.30;;;;;;5057367;28;20619;-71
2022/11/29 03:24:58;;;;;;;;;;;35.10;49.40;;;;;;5053746;28;19977;-70
2022/11/29 03:27:32;;;;;;;;;;;35.20;49.90;;;;;;5056439;28;19931;-70
2022/11/29 03:29:59;;;;;;;;;;;35.00;49.40;;;;;;5054126;28;20435;-71
2022/11/29 03:32:49;;;;;;;;;;;34.80;49.00;;;;;;5061166;28;19916;-70
2022/11/29 03:35:42;;;;;;;;;;;34.60;50.30;;;;;;5049294;28;19909;-71
2022/11/29 03:38:08;;;;;;;;;;;35.30;50.70;;;;;;5057461;28;19987;-70
2022/11/29 03:40:50;;;;;;;;;;;35.40;50.80;;;;;;5060237;28;19915;-69
2022/11/29 03:43:22;;;;;;;;;;;34.70;52.40;;;;;;5061648;28;20391;-70
2022/11/29 03:45:57;;;;;;;;;;;35.20;52.00;;;;;;5060067;28;19995;-71
2022/11/29 03:48:29;;;;;;;;;;;35.40;51.70;;;;;;5061535;28;20395;-69
2022/11/29 03:50:59;;;;;;;;;;;35.60;52.50;;;;;;5059723;28;19916;-70
2022/11/29 03:53:28;;;;;;;;;;;35.60;54.00;;;;;;5061540;28;19919;-70
2022/11/29 03:56:00;;;;;;;;;;;35.30;53.80;;;;;;5057123;28;20273;-70
2022/11/29 03:58:47;;;;;;;;;;;35.20;53.90;;;;;;5062468;28;19932;-70
2022/11/29 04:01:32;;;;;;;;;;;34.50;54.20;;;;;;5059487;28;19951;-71
2022/11/29 04:04:17;;;;;;;;;;;34.50;54.80;;;;;;5060257;28;19916;-70
2022/11/29 04:06:43;;;;;;;;;;;34.30;55.40;;;;;;5061387;28;20327;-70
2022/11/29 04:09:13;;;;;;;;;;;35.10;54.60;;;;;;5057735;28;19947;-71
2022/11/29 04:11:59;;;;;;;;;;;36.40;55.40;;;;;;5061165;28;19958;-72
2022/11/29 04:14:43;;;;;;;;;;;36.40;52.80;;;;;;5060840;28;20296;-70
2022/11/29 04:17:28;;;;;;;;;;;35.70;53.90;;;;;;5058516;28;19909;-71
2022/11/29 04:19:55;;;;;;;;;;;35.10;53.40;;;;;;5057885;28;19924;-72
2022/11/29 04:22:47;;;;;;;;;;;35.00;53.90;;;;;;5062083;28;19959;-72
2022/11/29 04:25:32;;;;;;;;;;;35.20;54.00;;;;;;5056534;28;19920;-69
2022/11/29 04:28:21;;;;;;;;;;;35.70;53.80;;;;;;5048448;28;19916;-71
2022/11/29 04:30:51;;;;;;;;;;;35.80;53.90;;;;;;5050096;28;19916;-69
2022/11/29 04:33:42;;;;;;;;;;;36.10;52.40;;;;;;5047875;28;19912;-72
2022/11/29 04:36:09;;;;;;;;;;;36.10;52.80;;;;;;5049552;28;20316;-70
2022/11/29 04:38:41;;;;;;;;;;;37.00;53.40;;;;;;5049437;28;19947;-70
2022/11/29 04:41:26;;;;;;;;;;;37.70;54.20;;;;;;5040653;28;19927;-72
2022/11/29 04:44:11;;;;;;;;;;;37.30;52.10;;;;;;5040479;28;19916;-73
2022/11/29 04:46:49;;;;;;;;;;;36.30;53.80;;;;;;5047691;28;19915;-71
2022/11/29 04:49:27;;;;;;;;;;;36.00;54.90;;;;;;5055357;28;19965;-71
2022/11/29 04:51:57;;;;;;;;;;;36.60;54.20;;;;;;5059712;28;20035;-69
2022/11/29 04:54:39;;;;;;;;;;;35.90;54.30;;;;;;5059989;28;19951;-70
2022/11/29 04:57:06;;;;;;;;;;;34.80;55.80;;;;;;5046931;28;20388;-74
2022/11/29 04:59:32;;;;;;;;;;;33.10;57.90;;;;;;5060548;28;19908;-73
2022/11/29 05:02:02;;;;;;;;;;;31.60;60.50;;;;;;5058698;28;19916;-72
2022/11/29 05:04:47;;;;;;;;;;;30.80;61.10;;;;;;5059282;28;19909;-73
2022/11/29 05:07:21;;;;;;;;;;;29.50;64.10;;;;;;5042373;28;20109;-72
2022/11/29 05:10:17;;;;;;;;;;;28.70;65.30;;;;;;5049357;28;19948;-71
2022/11/29 05:12:47;;;;;;;;;;;28.20;66.00;;;;;;5061908;28;19956;-72
2022/11/29 05:15:14;;;;;;;;;;;27.50;66.60;;;;;;5055991;28;19912;-73
2022/11/29 05:17:41;;;;;;;;;;;27.50;68.40;;;;;;5043884;28;19909;-69
2022/11/29 05:20:26;;;;;;;;;;;27.40;68.40;;;;;;5037368;28;20012;-71
2022/11/29 05:23:18;;;;;;;;;;;27.10;68.20;;;;;;5040820;28;19917;-72
2022/11/29 05:25:45;;;;;;;;;;;26.80;69.40;;;;;;5056560;28;19928;-71
2022/11/29 05:28:19;;;;;;;;;;;27.70;68.40;;;;;;5054063;28;19912;-70
2022/11/29 05:30:58;;;;;;;;;;;28.30;66.90;;;;;;5060694;28;19912;-70
2022/11/29 05:33:25;;;;;;;;;;;28.40;65.80;;;;;;5054724;28;19942;-70
2022/11/29 05:35:52;;;;;;;;;;;29.00;65.50;;;;;;5058402;28;19917;-72
2022/11/29 05:38:31;;;;;;;;;;;28.80;65.80;;;;;;5053142;28;19912;-72
2022/11/29 05:41:16;;;;;;;;;;;28.60;66.40;;;;;;5058365;28;19943;-71
2022/11/29 05:44:08;;;;;;;;;;;28.70;65.60;;;;;;5057299;28;19913;-71
2022/11/29 05:46:38;;;;;;;;;;;29.10;65.00;;;;;;5053770;28;20019;-72
2022/11/29 05:49:15;;;;;;;;;;;29.40;64.80;;;;;;5057110;28;19966;-71
2022/11/29 05:51:46;;;;;;;;;;;29.50;64.60;;;;;;5038301;28;19917;-72
2022/11/29 05:54:15;;;;;;;;;;;29.30;63.90;;;;;;5037663;28;19909;-72
2022/11/29 05:56:54;;;;;;;;;;;29.00;65.00;;;;;;5044355;28;20005;-73
2022/11/29 05:59:26;;;;;;;;;;;28.60;65.70;;;;;;5053767;28;20317;-72
2022/11/29 06:01:52;;;;;;;;;;;28.20;66.50;;;;;;5058621;28;19916;-72
2022/11/29 06:04:28;;;;;;;;;;;28.00;66.50;;;;;;5043120;28;19919;-72
2022/11/29 06:07:11;;;;;;;;;;;27.30;67.20;;;;;;5051624;28;19916;-72
2022/11/29 06:09:42;;;;;;;;;;;27.10;67.10;;;;;;5046042;28;20358;-71
2022/11/29 06:12:33;;;;;;;;;;;26.80;67.50;;;;;;5038220;28;19917;-71
2022/11/29 06:15:10;;;;;;;;;;;26.90;67.30;;;;;;5039667;28;20361;-72
2022/11/29 06:18:02;;;;;;;;;;;26.90;67.60;;;;;;5051980;28;20284;-71
2022/11/29 06:20:39;;;;;;;;;;;26.90;69.30;;;;;;5059086;28;20349;-72
2022/11/29 06:23:27;;;;;;;;;;;27.00;69.30;;;;;;5059032;28;19932;-70
2022/11/29 06:26:02;;;;;;;;;;;26.60;69.40;;;;;;5057979;28;19950;-72
2022/11/29 06:28:54;;;;;;;;;;;26.50;68.40;;;;;;5054351;28;20234;-71
2022/11/29 06:31:21;;;;;;;;;;;26.20;67.90;;;;;;5056826;28;20312;-70
2022/11/29 06:33:58;;;;;;;;;;;26.00;68.40;;;;;;5054735;28;19909;-71
2022/11/29 06:36:28;;;;;;;;;;;25.60;68.70;;;;;;5052146;28;20159;-70
2022/11/29 06:38:55;;;;;;;;;;;25.30;70.50;;;;;;5037874;28;20352;-74
2022/11/29 06:41:23;;;;;;;;;;;24.70;71.70;;;;;;5036399;28;19909;-71
2022/11/29 06:43:50;;;;;;;;;;;24.60;71.70;;;;;;5042572;28;20452;-71
2022/11/29 06:46:16;;;;;;;;;;;24.60;71.80;;;;;;5055500;28;19974;-73
2022/11/29 06:48:56;;;;;;;;;;;24.20;72.80;;;;;;5055465;28;19914;-70
2022/11/29 06:51:41;;;;;;;;;;;24.30;72.60;;;;;;5056325;28;19913;-72
2022/11/29 06:54:23;;;;;;;;;;;23.90;73.90;;;;;;5040168;28;20000;-72
2022/11/29 06:56:57;;;;;;;;;;;23.60;75.40;;;;;;5050589;28;19920;-72
2022/11/29 06:59:32;;;;;;;;;;;23.90;74.70;;;;;;5042907;28;19943;-71
2022/11/29 07:02:16;;;;;;;;;;;24.00;73.90;;;;;;5035695;28;19909;-72
2022/11/29 07:04:49;;;;;;;;;;;23.90;73.50;;;;;;5035289;28;20393;-70
2022/11/29 07:07:19;;;;;;;;;;;23.80;74.20;;;;;;5056502;28;20015;-72
2022/11/29 07:09:50;;;;;;;;;;;24.10;75.20;;;;;;5055649;28;19927;-73
2022/11/29 07:12:17;;;;;;;;;;;24.40;73.80;;;;;;5057535;28;19920;-71
2022/11/29 07:14:44;;;;;;;;;;;23.90;75.20;;;;;;5055216;28;19928;-71
2022/11/29 07:17:16;;;;;;;;;;;23.90;75.20;;;;;;5039541;28;19913;-70
2022/11/29 07:19:49;;;;;;;;;;;23.70;75.60;;;;;;5035309;28;19924;-72
2022/11/29 07:22:36;;;;;;;;;;;23.50;76.00;;;;;;5035906;28;20339;-71
2022/11/29 07:25:19;;;;;;;;;;;23.40;75.70;;;;;;5006912;28;20437;-71
2022/11/29 07:28:06;;;;;;;;;;;23.20;76.50;;;;;;5055056;28;20011;-71
2022/11/29 07:30:44;;;;;;;;;;;23.00;76.50;;;;;;5058367;28;19985;-71
2022/11/29 07:33:18;;;;;;;;;;;22.80;77.90;;;;;;5057296;28;20531;-71
2022/11/29 07:35:56;;;;;;;;;;;22.60;78.80;;;;;;5054992;28;19909;-70
2022/11/29 07:38:37;;;;;;;;;;;22.30;79.10;;;;;;5056552;28;19913;-71
2022/11/29 07:41:10;;;;;;;;;;;22.30;79.30;;;;;;5055574;28;19921;-72
2022/11/29 07:43:51;;;;;;;;;;;22.20;79.70;;;;;;5054746;28;19908;-72
2022/11/29 07:46:18;;;;;;;;;;;22.10;79.60;;;;;;5056361;28;20368;-70
2022/11/29 07:48:45;;;;;;;;;;;22.20;79.20;;;;;;5054244;28;20368;-71
2022/11/29 07:51:11;;;;;;;;;;;22.10;78.90;;;;;;5056487;28;19963;-70
2022/11/29 07:53:40;;;;;;;;;;;22.00;79.40;;;;;;5054282;28;20280;-71
2022/11/29 07:56:08;;;;;;;;;;;21.90;79.70;;;;;;5055852;28;19908;-72
2022/11/29 07:58:35;;;;;;;;;;;22.00;79.90;;;;;;5055465;28;19948;-71
2022/11/29 08:01:02;;;;;;;;;;;21.90;79.30;;;;;;5046124;28;19928;-70
2022/11/29 08:03:29;;;;;;;;;;;22.00;79.90;;;;;;5055413;28;19909;-71
2022/11/29 08:05:55;;;;;;;;;;;21.80;79.80;;;;;;5054917;28;19916;-72
2022/11/29 08:08:22;;;;;;;;;;;21.60;81.00;;;;;;5040630;28;20051;-71
2022/11/29 08:10:49;;;;;;;;;;;21.40;81.90;;;;;;5035052;28;19917;-72
2022/11/29 08:13:18;;;;;;;;;;;21.30;83.00;;;;;;5041648;28;20305;-70
2022/11/29 08:15:45;;;;;;;;;;;21.20;82.00;;;;;;5043384;28;20376;-74
2022/11/29 08:18:12;;;;;;;;;;;21.10;82.30;;;;;;5048421;28;20362;-72
2022/11/29 08:20:40;;;;;;;;;;;21.10;83.10;;;;;;5046601;28;19916;-71
2022/11/29 08:23:08;;;;;;;;;;;21.10;83.40;;;;;;5047233;28;20400;-72
2022/11/29 08:25:34;;;;;;;;;;;21.10;83.50;;;;;;5045564;28;19912;-72
2022/11/29 08:28:02;;;;;;;;;;;21.00;83.30;;;;;;5047649;28;20683;-73
2022/11/29 08:30:28;;;;;;;;;;;21.10;83.50;;;;;;5042082;28;19944;-72
2022/11/29 08:32:55;;;;;;;;;;;21.00;83.90;;;;;;5052767;28;20352;-72
2022/11/29 08:35:22;;;;;;;;;;;20.90;84.30;;;;;;5049332;28;20104;-69
2022/11/29 08:37:49;;;;;;;;;;;20.90;85.40;;;;;;5045620;28;19991;-72
2022/11/29 08:40:17;;;;;;;;;;;20.90;85.00;;;;;;5045042;28;20285;-72
2022/11/29 08:42:43;;;;;;;;;;;20.90;84.00;;;;;;5039099;28;19954;-73
2022/11/29 08:45:10;;;;;;;;;;;21.00;84.10;;;;;;5050593;28;20369;-72
2022/11/29 08:47:37;;;;;;;;;;;21.00;84.60;;;;;;5040308;28;19924;-73
2022/11/29 08:50:13;;;;;;;;;;;21.00;84.30;;;;;;5053597;28;19919;-72
2022/11/29 08:55:33;;;;;;;;;;;20.90;84.90;;;;;;5049643;28;19915;-70
2022/11/29 08:58:01;;;;;;;;;;;20.80;85.40;;;;;;5057709;28;19948;-71
2022/11/29 09:00:28;;;;;;;;;;;20.70;85.40;;;;;;5057812;28;19916;-71
2022/11/29 09:03:58;;;;;;;;;;;20.60;85.70;;;;;;5054485;28;19928;-71
2022/11/29 09:05:41;;;;;;;;;;;20.60;85.70;;;;;;5047055;28;19932;-72
2022/11/29 09:08:08;;;;;;;;;;;20.60;86.10;;;;;;5058154;28;20388;-72
2022/11/29 09:10:34;;;;;;;;;;;20.60;86.10;;;;;;5057755;28;19912;-72
2022/11/29 09:13:01;;;;;;;;;;;20.50;86.20;;;;;;5056252;28;20532;-71
2022/11/29 09:15:27;;;;;;;;;;;20.60;86.60;;;;;;5049588;28;19919;-72
2022/11/29 09:17:54;;;;;;;;;;;20.50;86.90;;;;;;5049698;28;19920;-72
2022/11/29 09:20:21;;;;;;;;;;;20.60;87.30;;;;;;5057399;28;20011;-72
2022/11/29 09:22:47;;;;;;;;;;;20.60;87.50;;;;;;5049009;28;19924;-71
2022/11/29 09:25:14;;;;;;;;;;;20.60;87.60;;;;;;5042967;28;19924;-70
2022/11/29 09:27:41;;;;;;;;;;;20.60;87.80;;;;;;5046112;28;19998;-70
2022/11/29 09:30:08;;;;;;;;;;;20.60;86.90;;;;;;5038386;28;19909;-72
2022/11/29 09:32:35;;;;;;;;;;;20.50;86.20;;;;;;5038327;28;19917;-70
2022/11/29 09:35:01;;;;;;;;;;;20.50;86.20;;;;;;5038442;28;20627;-72
2022/11/29 09:37:28;;;;;;;;;;;20.50;85.80;;;;;;5040441;28;19912;-71
2022/11/29 09:39:55;;;;;;;;;;;20.50;86.00;;;;;;5052150;28;20431;-71
2022/11/29 09:42:40;;;;;;;;;;;20.30;86.60;;;;;;5042285;28;19913;-70
2022/11/29 09:45:14;;;;;;;;;;;20.30;87.10;;;;;;5041680;28;19921;-69
2022/11/29 09:47:50;;;;;;;;;;;20.30;87.30;;;;;;5050919;28;19909;-70
2022/11/29 09:50:23;;;;;;;;;;;20.20;87.40;;;;;;5055499;28;19909;-71
2022/11/29 09:52:52;;;;;;;;;;;20.20;87.10;;;;;;5057842;28;20381;-70
2022/11/29 09:55:37;;;;;;;;;;;20.10;86.90;;;;;;5054777;28;19912;-72
2022/11/29 09:58:04;;;;;;;;;;;20.10;85.70;;;;;;5048036;28;19913;-72
2022/11/29 10:00:33;;;;;;;;;;;20.10;85.40;;;;;;5042415;28;19923;-70
2022/11/29 10:03:24;;;;;;;;;;;20.10;85.30;;;;;;5036216;28;20262;-72
2022/11/29 10:06:05;;;;;;;;;;;20.00;85.20;;;;;;5031714;28;19912;-71
2022/11/29 10:08:46;;;;;;;;;;;19.90;83.90;;;;;;5052830;28;19912;-71
2022/11/29 10:11:42;;;;;;;;;;;19.80;84.10;;;;;;5054868;28;19913;-72
2022/11/29 10:14:12;;;;;;;;;;;19.80;84.10;;;;;;5021766;28;19999;-70
2022/11/29 10:16:42;;;;;;;;;;;19.90;83.10;;;;;;5053419;28;19970;-70
2022/11/29 10:19:21;;;;;;;;;;;19.80;82.60;;;;;;5043798;28;20373;-71
2022/11/29 10:21:56;;;;;;;;;;;19.90;81.80;;;;;;5059010;28;19909;-71
2022/11/29 10:24:22;;;;;;;;;;;20.00;81.10;;;;;;5054490;28;19989;-71
2022/11/29 10:26:49;;;;;;;;;;;19.90;80.70;;;;;;5058950;28;19908;-70
2022/11/29 10:29:16;;;;;;;;;;;19.80;81.00;;;;;;5044457;28;20015;-72
2022/11/29 10:31:45;;;;;;;;;;;19.90;80.80;;;;;;5037787;28;19928;-70
2022/11/29 10:34:17;;;;;;;;;;;20.00;79.60;;;;;;5036043;28;19944;-71
2022/11/29 10:36:43;;;;;;;;;;;20.00;79.40;;;;;;5038029;28;19924;-71
2022/11/29 10:39:22;;;;;;;;;;;20.10;79.20;;;;;;5035556;28;20385;-72
2022/11/29 10:41:51;;;;;;;;;;;20.00;79.00;;;;;;5037270;28;19916;-70
2022/11/29 10:44:19;;;;;;;;;;;19.90;79.20;;;;;;5054295;28;19915;-72
2022/11/29 10:46:46;;;;;;;;;;;19.90;80.00;;;;;;5057417;28;19909;-70
2022/11/29 10:49:17;;;;;;;;;;;19.90;79.40;;;;;;5056329;28;19908;-72
2022/11/29 10:51:45;;;;;;;;;;;19.90;79.70;;;;;;5056220;28;20015;-71
2022/11/29 10:54:29;;;;;;;;;;;19.80;80.00;;;;;;5056452;28;19908;-71
2022/11/29 10:56:58;;;;;;;;;;;19.80;79.30;;;;;;5058484;28;19909;-71
2022/11/29 10:59:26;;;;;;;;;;;19.90;79.30;;;;;;5054764;28;19912;-72
2022/11/29 11:01:53;;;;;;;;;;;19.80;79.20;;;;;;5057945;28;19920;-71
2022/11/29 11:04:27;;;;;;;;;;;19.80;79.00;;;;;;5053816;28;19927;-72
2022/11/29 11:06:56;;;;;;;;;;;19.80;78.70;;;;;;5058165;28;19970;-71
2022/11/29 11:09:41;;;;;;;;;;;19.80;78.50;;;;;;5054129;28;19955;-73
2022/11/29 11:12:14;;;;;;;;;;;19.70;79.00;;;;;;5038393;28;19916;-72
2022/11/29 11:14:42;;;;;;;;;;;19.80;79.10;;;;;;5036124;28;19908;-69
2022/11/29 11:17:15;;;;;;;;;;;19.70;78.90;;;;;;5038516;28;19971;-71
2022/11/29 11:19:41;;;;;;;;;;;19.80;78.50;;;;;;5035756;28;19916;-72
2022/11/29 11:22:18;;;;;;;;;;;19.80;78.60;;;;;;5039581;28;19919;-70
2022/11/29 11:24:45;;;;;;;;;;;19.70;78.70;;;;;;5055653;28;20559;-71
2022/11/29 11:27:11;;;;;;;;;;;19.80;78.90;;;;;;5058165;28;19912;-69
2022/11/29 11:29:43;;;;;;;;;;;19.80;79.00;;;;;;5054702;28;19954;-70
2022/11/29 11:32:16;;;;;;;;;;;19.90;79.00;;;;;;5050419;28;19921;-69
2022/11/29 11:34:57;;;;;;;;;;;19.90;79.00;;;;;;5035692;28;19915;-69
2022/11/29 11:37:25;;;;;;;;;;;19.80;78.80;;;;;;5035817;28;20269;-69
2022/11/29 11:39:54;;;;;;;;;;;19.90;78.30;;;;;;5035539;28;19974;-69
2022/11/29 11:42:56;;;;;;;;;;;19.90;77.60;;;;;;5035827;28;19939;-72
2022/11/29 11:45:16;;;;;;;;;;;19.90;77.30;;;;;;5036258;28;19920;-70
2022/11/29 11:47:42;;;;;;;;;;;20.00;77.30;;;;;;5035191;28;19913;-71
2022/11/29 11:50:13;;;;;;;;;;;19.90;77.60;;;;;;5038161;28;20487;-69
2022/11/29 11:52:44;;;;;;;;;;;19.90;77.70;;;;;;5045355;28;19920;-70
2022/11/29 11:55:29;;;;;;;;;;;19.80;78.10;;;;;;5060340;28;19917;-71
2022/11/29 11:58:11;;;;;;;;;;;19.80;78.10;;;;;;5060027;28;20384;-69
2022/11/29 12:00:49;;;;;;;;;;;19.80;78.40;;;;;;5056213;28;20427;-70
2022/11/29 12:03:34;;;;;;;;;;;19.70;78.50;;;;;;5058578;28;19960;-73
2022/11/29 12:06:17;;;;;;;;;;;19.70;78.90;;;;;;5060036;28;19923;-70
2022/11/29 12:08:45;;;;;;;;;;;19.70;78.50;;;;;;5053651;28;20268;-69
2022/11/29 12:11:14;;;;;;;;;;;19.70;78.10;;;;;;5062152;28;19908;-70
2022/11/29 12:13:44;;;;;;;;;;;19.70;79.30;;;;;;5056547;28;20297;-69
2022/11/29 12:16:14;;;;;;;;;;;19.80;78.40;;;;;;5059869;28;19966;-70
2022/11/29 12:18:49;;;;;;;;;;;19.80;78.30;;;;;;5057254;28;20500;-72
2022/11/29 12:21:19;;;;;;;;;;;19.80;78.50;;;;;;5060887;28;20019;-71
2022/11/29 12:23:51;;;;;;;;;;;19.70;79.40;;;;;;5057251;28;20239;-70
2022/11/29 12:26:24;;;;;;;;;;;19.70;80.10;;;;;;5048447;28;19923;-70
2022/11/29 12:28:51;;;;;;;;;;;19.60;80.10;;;;;;5039257;28;19909;-71
2022/11/29 12:31:43;;;;;;;;;;;19.60;79.70;;;;;;5060925;28;19919;-70
2022/11/29 12:34:25;;;;;;;;;;;19.60;79.40;;;;;;5061431;28;20319;-70
2022/11/29 12:37:10;;;;;;;;;;;19.60;79.00;;;;;;5058467;28;20373;-72
2022/11/29 12:39:45;;;;;;;;;;;19.60;79.20;;;;;;5047696;28;19948;-70
2022/11/29 12:42:18;;;;;;;;;;;19.70;78.20;;;;;;5041272;28;19920;-69
2022/11/29 12:44:50;;;;;;;;;;;19.70;78.20;;;;;;5036748;28;20017;-71
2022/11/29 12:47:20;;;;;;;;;;;19.70;78.60;;;;;;5040856;28;19944;-71
2022/11/29 12:49:49;;;;;;;;;;;19.60;79.00;;;;;;5036514;28;20324;-70
2022/11/29 12:52:16;;;;;;;;;;;19.50;79.20;;;;;;5039321;28;20403;-72
2022/11/29 12:54:55;;;;;;;;;;;19.50;79.90;;;;;;5052086;28;19912;-69
2022/11/29 12:57:27;;;;;;;;;;;19.60;80.30;;;;;;5060846;28;19955;-70
2022/11/29 13:00:08;;;;;;;;;;;19.60;80.30;;;;;;5072581;28;20001;-70
2022/11/29 13:02:35;;;;;;;;;;;19.50;80.60;;;;;;5056527;28;19912;-70
2022/11/29 13:05:19;;;;;;;;;;;19.40;81.00;;;;;;5057493;28;19955;-71
2022/11/29 13:08:04;;;;;;;;;;;19.40;81.40;;;;;;5057701;28;19912;-71
2022/11/29 13:10:47;;;;;;;;;;;19.40;81.70;;;;;;5059626;28;19966;-71
2022/11/29 13:13:20;;;;;;;;;;;19.40;82.10;;;;;;5039897;28;19920;-71
2022/11/29 13:15:58;;;;;;;;;;;19.40;82.10;;;;;;5037672;28;19909;-73
2022/11/29 13:18:31;;;;;;;;;;;19.40;82.60;;;;;;5040642;28;19916;-70
2022/11/29 13:20:57;;;;;;;;;;;19.40;82.50;;;;;;5036801;28;19958;-71
2022/11/29 13:23:37;;;;;;;;;;;19.40;82.90;;;;;;5039816;28;20407;-72
2022/11/29 13:26:06;;;;;;;;;;;19.50;83.20;;;;;;5037968;28;19947;-71
2022/11/29 13:28:34;;;;;;;;;;;19.50;83.40;;;;;;5040048;28;19916;-73
2022/11/29 13:31:14;;;;;;;;;;;19.50;83.70;;;;;;5036408;28;19915;-71
2022/11/29 13:33:50;;;;;;;;;;;19.50;84.30;;;;;;5038514;28;19960;-70
2022/11/29 13:36:26;;;;;;;;;;;19.40;85.00;;;;;;5039982;28;19909;-72
2022/11/29 13:38:58;;;;;;;;;;;19.30;85.40;;;;;;5056892;28;19909;-73
2022/11/29 13:41:34;;;;;;;;;;;19.20;86.10;;;;;;5053688;28;19966;-72
2022/11/29 13:44:19;;;;;;;;;;;19.30;86.20;;;;;;5036277;28;19970;-71
2022/11/29 13:46:57;;;;;;;;;;;19.20;86.90;;;;;;5043222;28;19916;-71
2022/11/29 13:49:42;;;;;;;;;;;19.10;87.00;;;;;;5059449;28;20440;-70
2022/11/29 13:52:27;;;;;;;;;;;19.20;87.80;;;;;;5054790;28;19950;-71
2022/11/29 13:55:04;;;;;;;;;;;19.20;87.40;;;;;;5056136;28;19920;-73
2022/11/29 13:57:46;;;;;;;;;;;19.20;87.50;;;;;;5048313;28;19913;-70
2022/11/29 14:00:33;;;;;;;;;;;19.10;87.90;;;;;;5036545;28;19913;-71
2022/11/29 14:03:21;;;;;;;;;;;19.10;88.50;;;;;;5003951;28;19909;-69
2022/11/29 14:05:49;;;;;;;;;;;19.10;88.40;;;;;;5038517;28;19915;-70
2022/11/29 14:08:25;;;;;;;;;;;19.20;89.10;;;;;;5044488;28;20143;-69
2022/11/29 14:10:53;;;;;;;;;;;19.20;89.10;;;;;;5038229;28;19913;-71
2022/11/29 14:13:22;;;;;;;;;;;19.20;89.50;;;;;;5037097;28;19967;-71
2022/11/29 14:15:56;;;;;;;;;;;19.20;89.10;;;;;;5054949;28;19913;-72
2022/11/29 14:18:42;;;;;;;;;;;19.20;88.70;;;;;;5040333;28;19936;-73
2022/11/29 14:21:09;;;;;;;;;;;19.20;88.80;;;;;;5035431;28;19909;-72
2022/11/29 14:23:40;;;;;;;;;;;19.10;88.80;;;;;;5039118;28;19979;-70
2022/11/29 14:26:06;;;;;;;;;;;19.10;88.40;;;;;;5035444;28;19916;-71
2022/11/29 14:28:34;;;;;;;;;;;19.10;88.70;;;;;;5040124;28;20366;-71
2022/11/29 14:31:01;;;;;;;;;;;19.10;88.60;;;;;;5035488;28;19909;-71
2022/11/29 14:33:34;;;;;;;;;;;19.00;89.10;;;;;;5038726;28;19924;-69
2022/11/29 14:36:19;;;;;;;;;;;19.00;89.30;;;;;;5036357;28;19948;-70
2022/11/29 14:38:54;;;;;;;;;;;19.00;89.70;;;;;;5038606;28;20307;-71
2022/11/29 14:41:28;;;;;;;;;;;19.00;89.60;;;;;;5034594;28;20006;-69
2022/11/29 14:44:13;;;;;;;;;;;19.00;89.40;;;;;;5037675;28;19931;-70
2022/11/29 14:46:40;;;;;;;;;;;19.00;88.80;;;;;;5039045;28;19920;-70
2022/11/29 14:49:15;;;;;;;;;;;19.00;89.40;;;;;;5034545;28;19979;-70
2022/11/29 14:52:01;;;;;;;;;;;19.00;88.40;;;;;;5038786;28;19913;-69
2022/11/29 14:54:28;;;;;;;;;;;19.00;88.50;;;;;;5037541;28;19912;-70